sensor_id;sensor_type;location;lat;lon;timestamp;pressure;altitude;pressure_sealevel;temperature;humidity
30463;BME280;17256;43.618;25.336;2023-03-05T07:35:26;100154.03;;;9.31;81.40
30463;BME280;17256;43.618;25.336;2023-03-05T07:37:52;100033.81;;;8.74;81.13
30463;BME280;17256;43.618;25.336;2023-03-05T07:40:20;100153.44;;;9.90;81.25
30463;BME280;17256;43.618;25.336;2023-03-05T07:42:48;100326.53;;;10.91;80.11
30463;BME280;17256;43.618;25.336;2023-03-05T07:45:50;100112.44;;;9.62;79.84
30463;BME280;17256;43.618;25.336;2023-03-05T07:49:35;100325.69;;;11.36;78.34
30463;BME280;17256;43.618;25.336;2023-03-05T11:33:24;100066.97;;;13.87;56.49
30463;BME280;17256;43.618;25.336;2023-03-05T11:36:33;99989.00;;;13.62;56.45
30463;BME280;17256;43.618;25.336;2023-03-05T11:48:34;100040.78;;;13.30;57.07
30463;BME280;17256;43.618;25.336;2023-03-05T11:56:25;99775.31;;;12.14;56.89
30463;BME280;17256;43.618;25.336;2023-03-05T12:47:32;99729.91;;;11.87;55.77
30463;BME280;17256;43.618;25.336;2023-03-05T13:04:00;99742.69;;;11.99;56.30
30463;BME280;17256;43.618;25.336;2023-03-05T13:06:34;99794.13;;;12.36;55.60
30463;BME280;17256;43.618;25.336;2023-03-05T13:09:24;99827.34;;;12.41;54.50
30463;BME280;17256;43.618;25.336;2023-03-05T13:11:56;99776.72;;;12.05;55.01
30463;BME280;17256;43.618;25.336;2023-03-05T13:17:28;99984.44;;;13.55;54.14
30463;BME280;17256;43.618;25.336;2023-03-05T13:19:57;99810.88;;;12.52;54.34
30463;BME280;17256;43.618;25.336;2023-03-05T13:22:25;99990.28;;;13.77;55.19
30463;BME280;17256;43.618;25.336;2023-03-05T13:25:17;99632.09;;;11.54;55.22
30463;BME280;17256;43.618;25.336;2023-03-05T13:27:46;99888.03;;;13.19;55.63
30463;BME280;17256;43.618;25.336;2023-03-05T13:30:27;99877.28;;;13.11;55.87
30463;BME280;17256;43.618;25.336;2023-03-05T13:33:04;99766.03;;;12.15;56.19
30463;BME280;17256;43.618;25.336;2023-03-05T13:35:42;99859.84;;;12.69;56.61
30463;BME280;17256;43.618;25.336;2023-03-05T13:38:39;99788.47;;;12.30;56.34
30463;BME280;17256;43.618;25.336;2023-03-05T13:41:29;99720.75;;;12.11;56.23
30463;BME280;17256;43.618;25.336;2023-03-05T13:44:32;99685.09;;;11.61;55.49
30463;BME280;17256;43.618;25.336;2023-03-05T13:48:02;99775.97;;;12.16;56.90
30463;BME280;17256;43.618;25.336;2023-03-05T13:50:34;99764.94;;;12.16;56.90
30463;BME280;17256;43.618;25.336;2023-03-05T13:53:17;99982.50;;;13.44;56.70
30463;BME280;17256;43.618;25.336;2023-03-05T14:08:23;99987.19;;;13.26;57.46
30463;BME280;17256;43.618;25.336;2023-03-05T14:11:15;99779.78;;;11.72;57.72
30463;BME280;17256;43.618;25.336;2023-03-05T14:14:16;99581.72;;;10.31;58.58
30463;BME280;17256;43.618;25.336;2023-03-05T14:16:45;99779.03;;;11.65;58.76
30463;BME280;17256;43.618;25.336;2023-03-05T14:19:31;99974.53;;;13.00;58.63
30463;BME280;17256;43.618;25.336;2023-03-05T14:22:00;99821.69;;;12.17;58.22
30463;BME280;17256;43.618;25.336;2023-03-05T14:24:32;99858.38;;;12.66;57.41
30463;BME280;17256;43.618;25.336;2023-03-05T14:27:06;99733.59;;;11.81;57.68
30463;BME280;17256;43.618;25.336;2023-03-05T14:29:43;99583.75;;;10.92;57.09
30463;BME280;17256;43.618;25.336;2023-03-05T14:32:42;99905.28;;;12.78;56.76
30463;BME280;17256;43.618;25.336;2023-03-05T14:35:23;99951.72;;;13.29;56.83
30463;BME280;17256;43.618;25.336;2023-03-05T14:38:18;99954.00;;;13.32;55.10
30463;BME280;17256;43.618;25.336;2023-03-05T14:41:40;99609.50;;;11.16;54.94
30463;BME280;17256;43.618;25.336;2023-03-05T14:44:38;99951.00;;;13.34;55.13
30463;BME280;17256;43.618;25.336;2023-03-05T14:47:28;99685.38;;;11.78;55.04
30463;BME280;17256;43.618;25.336;2023-03-05T14:50:04;99931.19;;;13.25;54.59
30463;BME280;17256;43.618;25.336;2023-03-05T14:52:32;99713.72;;;11.79;54.57
30463;BME280;17256;43.618;25.336;2023-03-05T14:55:04;99807.91;;;12.36;53.67
30463;BME280;17256;43.618;25.336;2023-03-05T14:57:37;99826.25;;;12.23;53.86
30463;BME280;17256;43.618;25.336;2023-03-05T15:00:05;99812.63;;;12.10;55.12
30463;BME280;17256;43.618;25.336;2023-03-05T15:02:32;99842.38;;;12.38;54.75
30463;BME280;17256;43.618;25.336;2023-03-05T15:05:01;99902.84;;;12.70;54.48
30463;BME280;17256;43.618;25.336;2023-03-05T15:07:30;99628.47;;;10.99;54.47
30463;BME280;17256;43.618;25.336;2023-03-05T15:09:59;99740.56;;;11.58;54.70
30463;BME280;17256;43.618;25.336;2023-03-05T15:12:25;99580.44;;;10.58;53.95
30463;BME280;17256;43.618;25.336;2023-03-05T15:14:53;99735.94;;;11.34;54.09
30463;BME280;17256;43.618;25.336;2023-03-05T15:17:39;99541.16;;;10.01;53.79
30463;BME280;17256;43.618;25.336;2023-03-05T15:20:23;99650.97;;;10.58;53.46
30463;BME280;17256;43.618;25.336;2023-03-05T15:23:17;99690.19;;;10.71;53.56
30463;BME280;17256;43.618;25.336;2023-03-05T15:26:08;99563.59;;;9.92;54.52
30463;BME280;17256;43.618;25.336;2023-03-05T15:28:57;99921.09;;;12.02;54.64
30463;BME280;17256;43.618;25.336;2023-03-05T15:31:40;99618.97;;;10.07;55.36
30463;BME280;17256;43.618;25.336;2023-03-05T15:34:20;99563.94;;;9.64;55.63
30463;BME280;17256;43.618;25.336;2023-03-05T15:36:52;99636.94;;;10.03;56.05
30463;BME280;17256;43.618;25.336;2023-03-05T15:53:25;99825.47;;;10.47;57.23
30463;BME280;17256;43.618;25.336;2023-03-05T15:56:01;99635.56;;;9.29;57.26
30463;BME280;17256;43.618;25.336;2023-03-05T15:58:29;99761.47;;;9.88;57.71
30463;BME280;17256;43.618;25.336;2023-03-05T16:00:58;99717.72;;;9.49;57.86
30463;BME280;17256;43.618;25.336;2023-03-05T16:03:30;99609.09;;;8.70;57.64
30463;BME280;17256;43.618;25.336;2023-03-05T16:05:58;99830.25;;;9.87;57.28
30463;BME280;17256;43.618;25.336;2023-03-05T16:08:27;99708.06;;;9.00;56.73
30463;BME280;17256;43.618;25.336;2023-03-05T16:11:02;99721.53;;;9.15;57.50
30463;BME280;17256;43.618;25.336;2023-03-05T16:13:30;99555.78;;;7.93;57.44
30463;BME280;17256;43.618;25.336;2023-03-05T16:15:59;99960.88;;;10.21;56.85
30463;BME280;17256;43.618;25.336;2023-03-05T16:18:39;99731.22;;;8.84;57.56
30463;BME280;17256;43.618;25.336;2023-03-05T16:21:10;99564.38;;;7.77;57.47
30463;BME280;17256;43.618;25.336;2023-03-05T16:23:37;99733.13;;;8.71;57.48
30463;BME280;17256;43.618;25.336;2023-03-05T16:26:09;99696.63;;;8.37;57.36
30463;BME280;17256;43.618;25.336;2023-03-05T16:28:36;99676.53;;;8.17;57.42
30463;BME280;17256;43.618;25.336;2023-03-05T16:31:14;99781.78;;;8.82;57.72
30463;BME280;17256;43.618;25.336;2023-03-05T16:34:08;99608.47;;;7.67;57.86
30463;BME280;17256;43.618;25.336;2023-03-05T16:37:05;99575.00;;;7.46;57.79
30463;BME280;17256;43.618;25.336;2023-03-05T16:39:55;99572.59;;;7.29;58.00
30463;BME280;17256;43.618;25.336;2023-03-05T16:42:35;99707.00;;;7.94;58.75
30463;BME280;17256;43.618;25.336;2023-03-05T16:46:16;99575.91;;;7.18;58.57
30463;BME280;17256;43.618;25.336;2023-03-05T16:49:16;99833.94;;;8.60;58.91
30463;BME280;17256;43.618;25.336;2023-03-05T16:52:03;99955.28;;;9.29;59.30
30463;BME280;17256;43.618;25.336;2023-03-05T16:54:41;99742.72;;;7.92;59.09
30463;BME280;17256;43.618;25.336;2023-03-05T16:57:44;99565.88;;;6.56;59.66
30463;BME280;17256;43.618;25.336;2023-03-05T17:01:09;99679.56;;;7.33;59.77
30463;BME280;17256;43.618;25.336;2023-03-05T17:04:58;99979.19;;;9.00;60.10
30463;BME280;17256;43.618;25.336;2023-03-05T17:07:44;99551.84;;;6.31;60.84
30463;BME280;17256;43.618;25.336;2023-03-05T17:10:40;99704.53;;;7.30;60.38
30463;BME280;17256;43.618;25.336;2023-03-05T17:13:23;99969.19;;;8.79;60.37
30463;BME280;17256;43.618;25.336;2023-03-05T17:20:14;99739.63;;;7.05;61.43
30463;BME280;17256;43.618;25.336;2023-03-05T17:22:43;99572.13;;;5.86;61.69
30463;BME280;17256;43.618;25.336;2023-03-05T17:25:32;99735.75;;;6.93;62.02
30463;BME280;17256;43.618;25.336;2023-03-05T17:36:18;99783.97;;;6.86;62.62
30463;BME280;17256;43.618;25.336;2023-03-05T17:39:23;99769.56;;;6.70;63.44
30463;BME280;17256;43.618;25.336;2023-03-05T17:43:06;100010.13;;;8.03;63.45
30463;BME280;17256;43.618;25.336;2023-03-05T17:46:45;100016.63;;;8.02;63.20
30463;BME280;17256;43.618;25.336;2023-03-05T17:49:33;99782.41;;;6.55;63.20
30463;BME280;17256;43.618;25.336;2023-03-05T17:59:10;100028.63;;;7.80;63.70
30463;BME280;17256;43.618;25.336;2023-03-05T18:24:01;99646.47;;;5.00;64.55
30463;BME280;17256;43.618;25.336;2023-03-05T18:34:42;99820.94;;;5.86;66.25
30463;BME280;17256;43.618;25.336;2023-03-05T18:38:30;100050.69;;;7.06;66.19
30463;BME280;17256;43.618;25.336;2023-03-05T18:41:38;100064.78;;;7.10;66.06
30463;BME280;17256;43.618;25.336;2023-03-05T18:48:51;99726.09;;;4.93;66.61
30463;BME280;17256;43.618;25.336;2023-03-05T19:00:24;100075.06;;;6.78;66.82
30463;BME280;17256;43.618;25.336;2023-03-05T19:03:59;99798.66;;;5.01;67.06
30463;BME280;17256;43.618;25.336;2023-03-05T19:59:57;100107.47;;;6.44;66.13
